• Join FlightAware (Why Join?)
  • Login
  • US Flag 
06:37AM EDT


 

Airport Tracker/Info


-or-


 

Live Flight TrackerFlight Track Log ✈ N986DC ✈ 14-Apr-2013 ✈ KAVL - KDZJ

Flight Track Log - Related Links

Times and Time Zones

All times are in EDT time to prevent confusion due to time zone crossing. See the N986DC flight status page for this flight to view local times or setup timezone preferences in your user account.

Time Position Orientation Groundspeed Altitude Reporting Facility
EDT Latitude Longitude Course Direction KTS MPH feet Rate Location/Type
04:38PM 35.3011 -82.6289 244° Southwest 106 122 7,300  Level Atlanta Center
04:39PM 35.2806 -82.6497 220° Southwest 106 122 7,700 240 Climbing Atlanta Center
04:40PM 35.2558 -82.6756 220° Southwest 139 160 7,800  Climbing Atlanta Center
04:41PM 35.2250 -82.7117 224° Southwest 144 166 7,700 -180 Descending Atlanta Center
04:42PM 35.1961 -82.7450 223° Southwest 144 166 7,500 -120 Descending Atlanta Center
04:43PM 35.1672 -82.7736 219° Southwest 149 171 7,500 -60 Level Atlanta Center
04:44PM 35.2891 -82.9160 244° Southwest  Level Estimated
04:44PM 35.1342 -82.8019 215° Southwest 149 171 7,400  Level Atlanta Center
04:45PM 35.1031 -82.8328 219° Southwest 149 171 7,500 60 Climbing Atlanta Center
04:46PM 35.0806 -82.8661 230° Southwest 143 165 7,600  Climbing Atlanta Center
04:47PM 35.0600 -82.9097 240° Southwest 136 157 7,600  Level Atlanta Center
04:48PM 35.0436 -82.9531 245° Southwest 142 163 7,700  Climbing Atlanta Center
04:49PM 35.0358 -83.0064 260° West 153 176 7,600 -60 Descending Atlanta Center
04:50PM 35.0281 -83.0622 260° West 158 182 7,600  Level Atlanta Center
04:51PM 35.0325 -83.1181 276° West 164 189 7,700 -60 Climbing Atlanta Center
04:52PM 35.0331 -83.1789 271° West 164 189 7,500 -180 Descending Atlanta Center
04:53PM 35.0250 -83.2347 260° West 164 189 7,400  Descending Atlanta Center
04:54PM 35.0128 -83.2856 254° West 165 190 7,500  Climbing Atlanta Center
04:55PM 34.9944 -83.3339 245° Southwest 160 184 7,500  Level Atlanta Center
04:56PM 34.9864 -83.3847 259° West 160 184 7,600  Climbing Atlanta Center
04:57PM 34.9697 -83.4281 245° Southwest 154 177 7,500 -120 Descending Atlanta Center
04:58PM 34.9450 -83.4839 242° Southwest 159 183 7,400 -60 Descending Atlanta Center
04:59PM 34.9328 -83.5319 253° West 159 183 7,400  Level Atlanta Center
05:00PM 34.9247 -83.5903 260° West 166 191 7,400  Level Atlanta Center
05:01PM 34.9206 -83.6461 265° West 166 191 7,400  Level Atlanta Center
05:02PM 34.9083 -83.7044 256° West 176 203 7,400  Level Atlanta Center
05:03PM 34.9022 -83.7575 262° West 181 208 7,500 60 Climbing Atlanta Center